Historyczne dane pomiarowe

Dodano dane terminowe – wersja testowa.

Dane z okresu 1951-2019

Wersja bazy: 1.34 [2019-03-16, lista zmian], aktualizacja planowana na 2019-04-15

Dane meteo z obszaru Polski uzyskane na podstawie danych udostępnionych przez Instytut Meteorologii i Gospodarki Wodnej – Państwowy Instytut Badawczy.

 

Wybierz Datę:    

       

TemperaturaWilgotnośćWiatrCiśnienieOpadyŚniegCzas trwania zjawisk
 Stacja t tx tn tng RH VA  wxwx mslp ppp RRR   cm mm wxwxwxwxwxwxwx
1999-08-14 15.5 20.2 12.0- 81.5- 5.3 3.0---- 0.0------------
1999-08-13 16.0 21.4 13.0- 78.0- 4.0 2.0---- 0.0------------
1999-08-12 16.5 21.5 12.0- 73.8- 4.0 2.3---- 0.0------------
1999-08-11 19.2 25.4 14.0- 84.3- 3.7 1.3---- 0.0------------
1999-08-10 19.8 28.9 12.5- 75.0- 3.3 3.0---- 1.2------------
1999-08-09 21.6 28.4 15.0- 79.0- 2.0 1.0---- 0.0------------
1999-08-08 17.7 23.0 11.5- 93.5- 4.7 1.3---- 17.7------------
1999-08-07 19.9 28.0 10.5- 65.0- 0.7 1.0---- 0.0------------
1999-08-06 19.1 28.9 9.5- 59.8- 1.3 1.3---- 0.0------------
1999-08-05 18.6 27.7 7.5- 62.3- 0.7 1.0---- 0.0------------
1999-08-04 17.6 26.4 7.5- 67.3- 0.0 0.7---- 0.0------------
1999-08-03 17.5 25.9 7.0- 57.8- 0.3 2.0---- 0.0------------
1999-08-02 18.7 25.4 10.5- 53.0- 0.0 2.7---- 0.0------------
1999-08-01 18.4 24.4 11.0- 52.3- 0.0 3.7---- 0.0------------
1999-07-31 19.9 26.2 11.6- 50.3- 0.0 5.0---- 0.0------------
1999-07-30 18.7 25.2 11.0- 61.0- 1.3 5.7---- 0.0------------
1999-07-29 18.6 24.3 11.5- 61.3- 0.0 3.0---- 0.0------------
1999-07-28 18.1 24.1 12.5- 65.0- 2.0 3.0---- 0.0------------
1999-07-27 17.4 22.7 11.0- 67.0- 1.0 1.7---- 0.0------------
1999-07-26 18.8 27.2 11.6- 78.8- 4.3 2.3---- 2.5------------
1999-07-25 18.5 24.7 11.0- 76.5- 3.3 1.3---- 0.0------------
1999-07-24 17.9 23.7 11.2- 68.5- 0.3 2.7---- 0.0------------
1999-07-23 16.1 21.2 8.0- 69.5- 1.3 0.7---- 0.0------------
1999-07-22 18.7 22.7 14.0- 68.5- 1.3 1.7---- 0.0------------
1999-07-21 20.4 28.3 13.5- 74.5- 2.0 2.3---- 0.0------------
1999-07-20 20.8 28.7 11.0- 69.3- 2.3 0.3---- 0.0------------
1999-07-19 20.4 26.3 12.0- 66.5- 0.3 2.7---- 0.0------------
1999-07-18 17.6 25.7 9.0- 78.8- 1.3 1.7---- 0.8------------
1999-07-17 15.7 22.7 7.0- 74.8- 4.3 2.3---- 0.2------------
1999-07-16 16.0 20.6 11.2- 76.3- 2.7 2.7---- 0.0------------
1999-07-15 16.5 20.1 13.0- 85.0- 4.3 1.7---- 0.9------------
1999-07-14 20.3 26.7 17.0- 76.5- 4.7 2.7---- 35.2------------
1999-07-13 22.9 29.2 14.0- 66.0- 1.3 5.7---- 0.0------------
1999-07-12 21.1 27.5 11.5- 67.8- 0.7 2.7---- 0.0------------
1999-07-11 21.0 27.3 12.0- 61.0- 0.0 2.3---- 0.0------------
1999-07-10 19.6 25.7 13.0- 64.5- 0.0 4.7---- 0.0------------
1999-07-09 19.1 24.7 13.5- 74.0- 0.0 4.3---- 0.0------------
1999-07-08 18.1 21.0 15.0- 85.0- 5.3 4.3---- 3.0------------
1999-07-07 20.8 26.8 16.5- 88.3- 3.0 2.0---- 0.0------------
1999-07-06 25.5 31.8 19.0- 77.8- 0.7 3.0---- 1.9------------
1999-07-05 25.1 32.3 17.0- 71.5- 0.0 2.3---- 0.0------------
1999-07-04 22.7 29.7 11.5- 74.5- 0.0 2.3---- 0.0------------
1999-07-03 19.3 25.7 9.0- 80.5- 0.7 1.0---- 0.0------------
1999-07-02 19.0 26.2 13.0- 87.5- 3.0 0.7---- 0.0------------
1999-07-01 20.1 26.7 10.0- 71.5- 0.7 0.7---- 0.1------------
1999-06-30 17.6 23.7 9.0- 72.0- 0.7 1.0---- 0.0------------
1999-06-29 19.3 25.6 15.0- 81.8- 2.7 2.0---- 0.0------------
1999-06-28 21.0 27.7 10.0- 70.0- 0.7 2.3---- 0.3------------
1999-06-27 19.1 24.7 11.5- 64.8- 5.3 1.7---- 0.0------------
1999-06-26 13.7 19.7 5.5- 85.3- 5.3 2.3---- 0.0------------
1999-06-25 12.4 15.7 10.0- 88.8- 5.3 3.0---- 1.2------------
1999-06-24 13.3 15.8 10.4- 92.5- 4.3 1.7---- 0.3------------
1999-06-23 12.1 13.8 11.0- 94.3- 8.0 3.0---- 11.5------------
1999-06-22 14.0 17.0 12.0- 97.0- 8.0 3.7---- 12.5------------
1999-06-21 19.3 23.7 17.0- 80.0- 3.7 1.0---- 1.3------------
1999-06-20 20.1 24.7 14.0- 75.3- 1.3 1.7---- 0.0------------
1999-06-19 20.9 27.2 14.8- 80.3- 2.3 1.3---- 0.1------------
1999-06-18 17.0 20.0 14.0- 91.3- 5.3 3.0---- 19.6------------
1999-06-17 18.7 22.2 15.0- 84.5- 3.7 2.7---- 7.3------------
1999-06-16 17.7 20.8 15.5- 92.3- 6.0 2.3---- 0.0------------
1241.0 ms

 

Źródłem pochodzenia danych jest Instytut Meteorologii i Gospodarki Wodnej – Państwowy Instytut Badawczy. Dane Instytutu Meteorologii i Gospodarki Wodnej – Państwowego Instytutu Badawczego zostały przetworzone.

Dane źródłowe można odnaleźć na stronie https://dane.imgw.pl